sensor_id;sensor_type;location;lat;lon;timestamp;P1;durP1;ratioP1;P2;durP2;ratioP2
52918;SDS011;38793;52.690;6.812;2022-09-12T00:00:26;15.93;;;13.38;;
52918;SDS011;38793;52.690;6.812;2022-09-12T00:02:55;9.10;;;8.30;;
52918;SDS011;38793;52.690;6.812;2022-09-12T00:05:20;10.38;;;9.48;;
52918;SDS011;38793;52.690;6.812;2022-09-12T00:07:46;13.93;;;12.18;;
52918;SDS011;38793;52.690;6.812;2022-09-12T00:10:12;17.65;;;14.98;;
52918;SDS011;38793;52.690;6.812;2022-09-12T00:12:39;17.17;;;15.25;;
52918;SDS011;38793;52.690;6.812;2022-09-12T00:15:05;18.38;;;16.48;;
52918;SDS011;38793;52.690;6.812;2022-09-12T00:20:00;17.15;;;14.75;;
52918;SDS011;38793;52.690;6.812;2022-09-12T00:24:52;4.60;;;4.20;;
52918;SDS011;38793;52.690;6.812;2022-09-12T00:27:17;11.63;;;10.43;;
52918;SDS011;38793;52.690;6.812;2022-09-12T00:29:43;18.58;;;13.27;;
52918;SDS011;38793;52.690;6.812;2022-09-12T00:32:08;9.60;;;8.77;;
52918;SDS011;38793;52.690;6.812;2022-09-12T00:34:34;13.13;;;11.82;;
52918;SDS011;38793;52.690;6.812;2022-09-12T00:39:25;14.07;;;12.70;;
52918;SDS011;38793;52.690;6.812;2022-09-12T00:41:51;13.88;;;12.50;;
52918;SDS011;38793;52.690;6.812;2022-09-12T00:46:46;15.38;;;13.70;;
52918;SDS011;38793;52.690;6.812;2022-09-12T00:49:29;10.57;;;7.28;;
52918;SDS011;38793;52.690;6.812;2022-09-12T00:51:59;12.52;;;4.20;;
52918;SDS011;38793;52.690;6.812;2022-09-12T00:54:31;15.20;;;13.25;;
52918;SDS011;38793;52.690;6.812;2022-09-12T00:57:03;25.00;;;19.00;;
52918;SDS011;38793;52.690;6.812;2022-09-12T00:59:34;27.02;;;19.77;;
52918;SDS011;38793;52.690;6.812;2022-09-12T01:02:05;24.25;;;18.98;;
52918;SDS011;38793;52.690;6.812;2022-09-12T01:04:31;19.75;;;17.73;;
52918;SDS011;38793;52.690;6.812;2022-09-12T01:06:59;12.88;;;11.48;;
52918;SDS011;38793;52.690;6.812;2022-09-12T01:09:26;16.77;;;15.10;;
52918;SDS011;38793;52.690;6.812;2022-09-12T01:11:52;21.02;;;18.30;;
52918;SDS011;38793;52.690;6.812;2022-09-12T01:14:19;20.90;;;18.70;;
52918;SDS011;38793;52.690;6.812;2022-09-12T01:16:45;16.90;;;15.25;;
52918;SDS011;38793;52.690;6.812;2022-09-12T01:27:39;21.92;;;19.63;;
52918;SDS011;38793;52.690;6.812;2022-09-12T01:30:20;20.85;;;18.67;;
52918;SDS011;38793;52.690;6.812;2022-09-12T01:33:21;10.40;;;9.50;;
52918;SDS011;38793;52.690;6.812;2022-09-12T01:36:27;138.05;;;20.13;;
52918;SDS011;38793;52.690;6.812;2022-09-12T01:38:46;19.40;;;17.40;;
52918;SDS011;38793;52.690;6.812;2022-09-12T01:41:23;21.98;;;18.15;;
52918;SDS011;38793;52.690;6.812;2022-09-12T01:47:14;19.90;;;17.67;;
52918;SDS011;38793;52.690;6.812;2022-09-12T01:49:45;17.85;;;16.08;;
52918;SDS011;38793;52.690;6.812;2022-09-12T01:52:31;19.27;;;17.38;;
52918;SDS011;38793;52.690;6.812;2022-09-12T02:00:32;21.33;;;18.50;;
52918;SDS011;38793;52.690;6.812;2022-09-12T02:03:07;17.00;;;14.93;;
52918;SDS011;38793;52.690;6.812;2022-09-12T02:05:38;21.17;;;18.98;;
52918;SDS011;38793;52.690;6.812;2022-09-12T02:08:09;30.10;;;24.17;;
52918;SDS011;38793;52.690;6.812;2022-09-12T02:10:42;27.55;;;24.25;;
52918;SDS011;38793;52.690;6.812;2022-09-12T02:13:39;27.23;;;22.80;;
52918;SDS011;38793;52.690;6.812;2022-09-12T02:16:29;29.25;;;24.50;;
52918;SDS011;38793;52.690;6.812;2022-09-12T02:19:04;27.25;;;20.27;;
52918;SDS011;38793;52.690;6.812;2022-09-12T02:21:35;23.42;;;20.92;;
52918;SDS011;38793;52.690;6.812;2022-09-12T02:24:04;24.98;;;20.75;;
52918;SDS011;38793;52.690;6.812;2022-09-12T02:26:35;26.73;;;23.80;;
52918;SDS011;38793;52.690;6.812;2022-09-12T02:29:24;22.58;;;20.17;;
52918;SDS011;38793;52.690;6.812;2022-09-12T02:32:00;18.63;;;16.30;;
52918;SDS011;38793;52.690;6.812;2022-09-12T02:39:57;18.33;;;15.93;;
52918;SDS011;38793;52.690;6.812;2022-09-12T02:42:24;14.93;;;13.52;;
52918;SDS011;38793;52.690;6.812;2022-09-12T02:44:50;10.90;;;9.93;;
52918;SDS011;38793;52.690;6.812;2022-09-12T02:47:22;16.38;;;13.50;;
52918;SDS011;38793;52.690;6.812;2022-09-12T02:49:49;20.50;;;18.30;;
52918;SDS011;38793;52.690;6.812;2022-09-12T02:52:16;24.45;;;20.80;;
52918;SDS011;38793;52.690;6.812;2022-09-12T02:54:42;38.10;;;28.40;;
52918;SDS011;38793;52.690;6.812;2022-09-12T02:57:18;29.33;;;24.67;;
52918;SDS011;38793;52.690;6.812;2022-09-12T02:59:46;25.98;;;19.23;;
52918;SDS011;38793;52.690;6.812;2022-09-12T03:02:21;18.23;;;16.35;;
52918;SDS011;38793;52.690;6.812;2022-09-12T03:13:58;23.92;;;21.15;;
52918;SDS011;38793;52.690;6.812;2022-09-12T03:16:27;30.60;;;25.08;;
52918;SDS011;38793;52.690;6.812;2022-09-12T03:22:06;33.30;;;26.50;;
52918;SDS011;38793;52.690;6.812;2022-09-12T03:27:48;16.00;;;13.00;;
52918;SDS011;38793;52.690;6.812;2022-09-12T03:30:22;17.10;;;15.20;;
52918;SDS011;38793;52.690;6.812;2022-09-12T03:32:52;54.03;;;17.67;;
52918;SDS011;38793;52.690;6.812;2022-09-12T03:35:19;11.75;;;10.63;;
52918;SDS011;38793;52.690;6.812;2022-09-12T03:37:46;8.23;;;7.22;;
52918;SDS011;38793;52.690;6.812;2022-09-12T03:40:13;26.15;;;20.27;;
52918;SDS011;38793;52.690;6.812;2022-09-12T03:45:05;19.15;;;12.90;;
52918;SDS011;38793;52.690;6.812;2022-09-12T03:47:32;21.95;;;18.08;;
52918;SDS011;38793;52.690;6.812;2022-09-12T03:49:57;23.35;;;17.80;;
52918;SDS011;38793;52.690;6.812;2022-09-12T03:52:23;13.70;;;12.30;;
52918;SDS011;38793;52.690;6.812;2022-09-12T03:54:49;10.68;;;9.77;;
52918;SDS011;38793;52.690;6.812;2022-09-12T03:57:14;18.10;;;15.52;;
52918;SDS011;38793;52.690;6.812;2022-09-12T03:59:40;14.10;;;12.60;;
52918;SDS011;38793;52.690;6.812;2022-09-12T04:02:05;18.55;;;15.68;;
52918;SDS011;38793;52.690;6.812;2022-09-12T04:04:31;20.73;;;15.13;;
52918;SDS011;38793;52.690;6.812;2022-09-12T04:06:57;23.40;;;19.00;;
52918;SDS011;38793;52.690;6.812;2022-09-12T04:09:23;25.88;;;17.42;;
52918;SDS011;38793;52.690;6.812;2022-09-12T04:11:48;213.10;;;20.00;;
52918;SDS011;38793;52.690;6.812;2022-09-12T04:14:14;9.13;;;8.25;;
52918;SDS011;38793;52.690;6.812;2022-09-12T04:16:39;16.33;;;10.60;;
52918;SDS011;38793;52.690;6.812;2022-09-12T04:19:05;10.30;;;9.33;;
52918;SDS011;38793;52.690;6.812;2022-09-12T04:21:31;16.33;;;14.47;;
52918;SDS011;38793;52.690;6.812;2022-09-12T04:23:56;15.25;;;12.48;;
52918;SDS011;38793;52.690;6.812;2022-09-12T04:26:22;14.93;;;13.38;;
52918;SDS011;38793;52.690;6.812;2022-09-12T04:28:51;16.48;;;12.98;;
52918;SDS011;38793;52.690;6.812;2022-09-12T04:31:18;19.10;;;13.40;;
52918;SDS011;38793;52.690;6.812;2022-09-12T04:33:46;22.13;;;10.13;;
52918;SDS011;38793;52.690;6.812;2022-09-12T04:36:16;17.38;;;12.52;;
52918;SDS011;38793;52.690;6.812;2022-09-12T04:38:43;21.88;;;16.23;;
52918;SDS011;38793;52.690;6.812;2022-09-12T04:41:10;40.33;;;14.40;;
52918;SDS011;38793;52.690;6.812;2022-09-12T04:43:42;14.95;;;11.65;;
52918;SDS011;38793;52.690;6.812;2022-09-12T04:46:11;165.95;;;16.75;;
52918;SDS011;38793;52.690;6.812;2022-09-12T04:48:39;311.70;;;19.15;;
52918;SDS011;38793;52.690;6.812;2022-09-12T04:51:08;32.15;;;13.23;;
52918;SDS011;38793;52.690;6.812;2022-09-12T04:53:36;147.85;;;22.33;;
52918;SDS011;38793;52.690;6.812;2022-09-12T04:56:06;59.78;;;18.40;;
52918;SDS011;38793;52.690;6.812;2022-09-12T04:58:33;23.23;;;20.15;;
52918;SDS011;38793;52.690;6.812;2022-09-12T05:01:03;22.48;;;20.10;;
52918;SDS011;38793;52.690;6.812;2022-09-12T05:03:37;22.80;;;20.17;;
52918;SDS011;38793;52.690;6.812;2022-09-12T05:06:08;31.05;;;19.73;;
52918;SDS011;38793;52.690;6.812;2022-09-12T05:08:39;30.20;;;21.13;;
52918;SDS011;38793;52.690;6.812;2022-09-12T05:11:05;27.58;;;21.52;;
52918;SDS011;38793;52.690;6.812;2022-09-12T05:13:34;25.92;;;21.98;;
52918;SDS011;38793;52.690;6.812;2022-09-12T05:16:00;27.30;;;22.42;;
52918;SDS011;38793;52.690;6.812;2022-09-12T05:18:30;34.70;;;26.88;;
52918;SDS011;38793;52.690;6.812;2022-09-12T05:21:01;31.85;;;25.88;;
52918;SDS011;38793;52.690;6.812;2022-09-12T05:23:28;33.85;;;28.35;;
52918;SDS011;38793;52.690;6.812;2022-09-12T05:25:55;39.10;;;29.80;;
52918;SDS011;38793;52.690;6.812;2022-09-12T05:28:22;34.58;;;27.05;;
52918;SDS011;38793;52.690;6.812;2022-09-12T05:31:03;46.70;;;32.03;;
52918;SDS011;38793;52.690;6.812;2022-09-12T05:33:31;38.95;;;30.00;;
52918;SDS011;38793;52.690;6.812;2022-09-12T05:35:58;38.15;;;30.35;;
52918;SDS011;38793;52.690;6.812;2022-09-12T05:38:23;44.95;;;32.15;;
52918;SDS011;38793;52.690;6.812;2022-09-12T05:40:49;43.45;;;32.63;;
52918;SDS011;38793;52.690;6.812;2022-09-12T05:45:41;45.03;;;32.35;;
52918;SDS011;38793;52.690;6.812;2022-09-12T05:48:06;47.75;;;34.00;;
52918;SDS011;38793;52.690;6.812;2022-09-12T05:50:32;51.00;;;34.97;;
52918;SDS011;38793;52.690;6.812;2022-09-12T05:52:58;58.45;;;38.55;;
52918;SDS011;38793;52.690;6.812;2022-09-12T05:55:23;54.70;;;40.20;;
52918;SDS011;38793;52.690;6.812;2022-09-12T05:57:49;56.85;;;40.42;;
52918;SDS011;38793;52.690;6.812;2022-09-12T06:00:15;56.05;;;40.88;;
52918;SDS011;38793;52.690;6.812;2022-09-12T06:02:41;57.53;;;41.25;;
52918;SDS011;38793;52.690;6.812;2022-09-12T06:05:07;58.57;;;41.83;;
52918;SDS011;38793;52.690;6.812;2022-09-12T06:07:33;57.75;;;41.08;;
52918;SDS011;38793;52.690;6.812;2022-09-12T06:09:59;59.78;;;41.00;;
52918;SDS011;38793;52.690;6.812;2022-09-12T06:12:27;56.40;;;40.72;;
52918;SDS011;38793;52.690;6.812;2022-09-12T06:14:53;54.55;;;39.67;;
52918;SDS011;38793;52.690;6.812;2022-09-12T06:17:20;55.42;;;38.75;;
52918;SDS011;38793;52.690;6.812;2022-09-12T06:19:46;51.28;;;37.20;;
52918;SDS011;38793;52.690;6.812;2022-09-12T06:22:13;56.42;;;38.83;;
52918;SDS011;38793;52.690;6.812;2022-09-12T06:24:39;45.08;;;33.75;;
52918;SDS011;38793;52.690;6.812;2022-09-12T06:27:05;39.40;;;24.53;;
52918;SDS011;38793;52.690;6.812;2022-09-12T06:29:30;56.77;;;40.90;;
52918;SDS011;38793;52.690;6.812;2022-09-12T06:31:56;53.67;;;37.97;;
52918;SDS011;38793;52.690;6.812;2022-09-12T06:34:22;50.85;;;34.88;;
52918;SDS011;38793;52.690;6.812;2022-09-12T06:36:48;54.25;;;38.00;;
52918;SDS011;38793;52.690;6.812;2022-09-12T06:39:17;52.60;;;37.10;;
52918;SDS011;38793;52.690;6.812;2022-09-12T06:41:47;52.85;;;38.67;;
52918;SDS011;38793;52.690;6.812;2022-09-12T06:44:18;55.83;;;38.33;;
52918;SDS011;38793;52.690;6.812;2022-09-12T06:46:45;56.83;;;39.08;;
52918;SDS011;38793;52.690;6.812;2022-09-12T06:49:12;55.03;;;37.50;;
52918;SDS011;38793;52.690;6.812;2022-09-12T06:51:38;51.05;;;35.28;;
52918;SDS011;38793;52.690;6.812;2022-09-12T06:54:05;46.03;;;34.25;;
52918;SDS011;38793;52.690;6.812;2022-09-12T06:56:31;59.50;;;32.60;;
52918;SDS011;38793;52.690;6.812;2022-09-12T06:58:58;45.10;;;32.10;;
52918;SDS011;38793;52.690;6.812;2022-09-12T07:01:28;43.88;;;32.83;;
52918;SDS011;38793;52.690;6.812;2022-09-12T07:03:59;48.20;;;34.78;;
52918;SDS011;38793;52.690;6.812;2022-09-12T07:06:27;51.65;;;34.47;;
52918;SDS011;38793;52.690;6.812;2022-09-12T07:08:58;41.83;;;30.30;;
52918;SDS011;38793;52.690;6.812;2022-09-12T07:11:26;46.28;;;33.72;;
52918;SDS011;38793;52.690;6.812;2022-09-12T07:13:55;43.95;;;31.52;;
52918;SDS011;38793;52.690;6.812;2022-09-12T07:16:22;54.70;;;35.63;;
52918;SDS011;38793;52.690;6.812;2022-09-12T07:18:51;47.83;;;34.03;;
52918;SDS011;38793;52.690;6.812;2022-09-12T07:21:18;49.55;;;36.80;;
52918;SDS011;38793;52.690;6.812;2022-09-12T07:23:45;46.97;;;33.72;;
52918;SDS011;38793;52.690;6.812;2022-09-12T07:26:11;45.63;;;33.33;;
52918;SDS011;38793;52.690;6.812;2022-09-12T07:28:38;46.05;;;33.08;;
52918;SDS011;38793;52.690;6.812;2022-09-12T07:31:05;44.83;;;32.53;;
52918;SDS011;38793;52.690;6.812;2022-09-12T07:33:38;38.42;;;28.35;;
52918;SDS011;38793;52.690;6.812;2022-09-12T07:36:05;43.13;;;30.48;;
52918;SDS011;38793;52.690;6.812;2022-09-12T07:38:35;44.03;;;30.30;;
52918;SDS011;38793;52.690;6.812;2022-09-12T07:41:08;44.22;;;28.50;;
52918;SDS011;38793;52.690;6.812;2022-09-12T07:43:35;42.75;;;30.65;;
52918;SDS011;38793;52.690;6.812;2022-09-12T07:46:00;36.00;;;27.77;;
52918;SDS011;38793;52.690;6.812;2022-09-12T07:48:26;34.47;;;27.90;;
52918;SDS011;38793;52.690;6.812;2022-09-12T07:50:59;41.75;;;29.85;;
52918;SDS011;38793;52.690;6.812;2022-09-12T07:53:29;42.45;;;30.63;;
52918;SDS011;38793;52.690;6.812;2022-09-12T07:55:56;41.53;;;29.20;;
52918;SDS011;38793;52.690;6.812;2022-09-12T07:58:22;37.10;;;28.33;;
52918;SDS011;38793;52.690;6.812;2022-09-12T08:00:48;41.40;;;30.17;;
52918;SDS011;38793;52.690;6.812;2022-09-12T08:03:14;42.22;;;27.55;;
52918;SDS011;38793;52.690;6.812;2022-09-12T08:05:40;32.38;;;26.30;;
52918;SDS011;38793;52.690;6.812;2022-09-12T08:08:06;35.75;;;27.85;;
52918;SDS011;38793;52.690;6.812;2022-09-12T08:10:32;35.42;;;27.55;;
52918;SDS011;38793;52.690;6.812;2022-09-12T08:12:57;38.63;;;25.98;;
52918;SDS011;38793;52.690;6.812;2022-09-12T08:15:23;30.08;;;24.80;;
52918;SDS011;38793;52.690;6.812;2022-09-12T08:17:49;34.28;;;26.73;;
52918;SDS011;38793;52.690;6.812;2022-09-12T08:20:14;32.65;;;25.60;;
52918;SDS011;38793;52.690;6.812;2022-09-12T08:22:41;32.58;;;26.13;;
52918;SDS011;38793;52.690;6.812;2022-09-12T08:25:07;36.83;;;26.35;;
52918;SDS011;38793;52.690;6.812;2022-09-12T08:27:33;30.67;;;24.73;;
52918;SDS011;38793;52.690;6.812;2022-09-12T08:29:58;29.40;;;24.42;;
52918;SDS011;38793;52.690;6.812;2022-09-12T08:32:24;37.63;;;27.08;;
52918;SDS011;38793;52.690;6.812;2022-09-12T08:34:50;33.28;;;26.60;;
52918;SDS011;38793;52.690;6.812;2022-09-12T08:37:15;38.40;;;26.90;;
52918;SDS011;38793;52.690;6.812;2022-09-12T08:39:41;37.67;;;27.85;;
52918;SDS011;38793;52.690;6.812;2022-09-12T08:42:08;37.20;;;27.50;;
52918;SDS011;38793;52.690;6.812;2022-09-12T08:47:24;33.97;;;27.23;;
52918;SDS011;38793;52.690;6.812;2022-09-12T08:55:29;46.20;;;33.15;;
52918;SDS011;38793;52.690;6.812;2022-09-12T08:58:01;39.75;;;31.35;;
52918;SDS011;38793;52.690;6.812;2022-09-12T09:09:10;44.22;;;30.73;;
52918;SDS011;38793;52.690;6.812;2022-09-12T09:11:44;41.78;;;30.25;;
52918;SDS011;38793;52.690;6.812;2022-09-12T09:17:20;53.50;;;37.88;;
52918;SDS011;38793;52.690;6.812;2022-09-12T09:22:34;41.70;;;30.10;;
52918;SDS011;38793;52.690;6.812;2022-09-12T09:25:03;52.47;;;35.08;;
52918;SDS011;38793;52.690;6.812;2022-09-12T09:27:40;53.47;;;41.53;;
52918;SDS011;38793;52.690;6.812;2022-09-12T09:30:15;45.78;;;33.60;;
52918;SDS011;38793;52.690;6.812;2022-09-12T09:32:43;47.38;;;31.63;;
52918;SDS011;38793;52.690;6.812;2022-09-12T09:37:44;50.38;;;34.88;;
52918;SDS011;38793;52.690;6.812;2022-09-12T09:40:54;41.42;;;29.25;;
52918;SDS011;38793;52.690;6.812;2022-09-12T09:43:22;44.22;;;28.60;;
52918;SDS011;38793;52.690;6.812;2022-09-12T09:45:50;39.80;;;28.73;;
52918;SDS011;38793;52.690;6.812;2022-09-12T09:48:23;38.15;;;29.58;;
52918;SDS011;38793;52.690;6.812;2022-09-12T09:51:02;41.20;;;29.38;;
52918;SDS011;38793;52.690;6.812;2022-09-12T09:56:26;46.53;;;30.70;;
52918;SDS011;38793;52.690;6.812;2022-09-12T09:59:14;44.55;;;29.50;;
52918;SDS011;38793;52.690;6.812;2022-09-12T10:01:53;37.33;;;27.30;;
52918;SDS011;38793;52.690;6.812;2022-09-12T10:07:03;38.03;;;26.63;;
52918;SDS011;38793;52.690;6.812;2022-09-12T10:09:30;34.33;;;25.40;;
52918;SDS011;38793;52.690;6.812;2022-09-12T10:11:57;155.00;;;137.93;;
52918;SDS011;38793;52.690;6.812;2022-09-12T10:19:35;47.63;;;36.60;;
52918;SDS011;38793;52.690;6.812;2022-09-12T10:22:02;36.78;;;24.63;;
52918;SDS011;38793;52.690;6.812;2022-09-12T10:24:32;33.53;;;25.08;;
52918;SDS011;38793;52.690;6.812;2022-09-12T10:29:41;84.80;;;68.32;;
52918;SDS011;38793;52.690;6.812;2022-09-12T10:32:12;62.78;;;53.55;;
52918;SDS011;38793;52.690;6.812;2022-09-12T10:34:51;57.70;;;43.25;;
52918;SDS011;38793;52.690;6.812;2022-09-12T10:37:27;55.33;;;40.92;;
52918;SDS011;38793;52.690;6.812;2022-09-12T10:39:54;24.13;;;20.48;;
52918;SDS011;38793;52.690;6.812;2022-09-12T10:45:34;31.35;;;21.98;;
52918;SDS011;38793;52.690;6.812;2022-09-12T10:50:49;26.27;;;18.92;;
52918;SDS011;38793;52.690;6.812;2022-09-12T10:55:58;23.23;;;18.27;;
52918;SDS011;38793;52.690;6.812;2022-09-12T11:01:36;27.20;;;18.60;;
52918;SDS011;38793;52.690;6.812;2022-09-12T11:04:12;26.27;;;20.35;;
52918;SDS011;38793;52.690;6.812;2022-09-12T11:14:54;25.85;;;17.83;;
52918;SDS011;38793;52.690;6.812;2022-09-12T11:26:11;22.33;;;15.82;;
52918;SDS011;38793;52.690;6.812;2022-09-12T11:34:18;21.13;;;14.52;;
52918;SDS011;38793;52.690;6.812;2022-09-12T11:40:23;21.13;;;13.93;;
52918;SDS011;38793;52.690;6.812;2022-09-12T11:42:53;19.58;;;12.88;;
52918;SDS011;38793;52.690;6.812;2022-09-12T11:45:31;20.27;;;14.60;;
52918;SDS011;38793;52.690;6.812;2022-09-12T11:48:05;15.57;;;13.23;;
52918;SDS011;38793;52.690;6.812;2022-09-12T11:50:35;15.77;;;13.77;;
52918;SDS011;38793;52.690;6.812;2022-09-12T11:55:32;14.68;;;11.98;;
52918;SDS011;38793;52.690;6.812;2022-09-12T11:58:08;18.92;;;13.90;;
52918;SDS011;38793;52.690;6.812;2022-09-12T12:00:37;16.98;;;14.07;;
52918;SDS011;38793;52.690;6.812;2022-09-12T12:06:01;16.45;;;10.80;;
52918;SDS011;38793;52.690;6.812;2022-09-12T12:08:31;14.07;;;10.07;;
52918;SDS011;38793;52.690;6.812;2022-09-12T12:11:03;12.98;;;9.65;;
52918;SDS011;38793;52.690;6.812;2022-09-12T12:18:42;14.70;;;10.90;;
52918;SDS011;38793;52.690;6.812;2022-09-12T12:34:33;14.23;;;10.98;;
52918;SDS011;38793;52.690;6.812;2022-09-12T12:37:43;11.60;;;9.20;;
52918;SDS011;38793;52.690;6.812;2022-09-12T12:43:00;13.52;;;10.02;;
52918;SDS011;38793;52.690;6.812;2022-09-12T12:48:10;12.30;;;9.10;;
52918;SDS011;38793;52.690;6.812;2022-09-12T12:50:40;14.57;;;9.07;;
52918;SDS011;38793;52.690;6.812;2022-09-12T12:53:20;11.80;;;8.88;;
52918;SDS011;38793;52.690;6.812;2022-09-12T12:55:49;15.40;;;9.02;;
52918;SDS011;38793;52.690;6.812;2022-09-12T12:58:36;12.75;;;8.95;;
52918;SDS011;38793;52.690;6.812;2022-09-12T13:03:42;11.52;;;8.88;;
52918;SDS011;38793;52.690;6.812;2022-09-12T13:06:20;9.43;;;8.02;;
52918;SDS011;38793;52.690;6.812;2022-09-12T13:09:04;12.45;;;9.18;;
52918;SDS011;38793;52.690;6.812;2022-09-12T13:14:56;9.23;;;6.22;;
52918;SDS011;38793;52.690;6.812;2022-09-12T13:19:52;6.20;;;5.60;;
52918;SDS011;38793;52.690;6.812;2022-09-12T13:22:36;7.60;;;6.15;;
52918;SDS011;38793;52.690;6.812;2022-09-12T13:30:45;7.60;;;6.78;;
52918;SDS011;38793;52.690;6.812;2022-09-12T13:33:17;9.00;;;7.20;;
52918;SDS011;38793;52.690;6.812;2022-09-12T13:36:07;7.80;;;6.95;;
52918;SDS011;38793;52.690;6.812;2022-09-12T13:38:36;9.15;;;6.68;;
52918;SDS011;38793;52.690;6.812;2022-09-12T13:43:45;7.70;;;6.35;;
52918;SDS011;38793;52.690;6.812;2022-09-12T13:46:13;13.18;;;6.65;;
52918;SDS011;38793;52.690;6.812;2022-09-12T13:48:43;8.90;;;7.75;;
52918;SDS011;38793;52.690;6.812;2022-09-12T13:51:18;8.20;;;6.85;;
52918;SDS011;38793;52.690;6.812;2022-09-12T13:53:48;7.35;;;6.38;;
52918;SDS011;38793;52.690;6.812;2022-09-12T13:56:17;7.03;;;5.45;;
52918;SDS011;38793;52.690;6.812;2022-09-12T13:59:17;6.93;;;5.75;;
52918;SDS011;38793;52.690;6.812;2022-09-12T14:01:41;5.72;;;4.97;;
52918;SDS011;38793;52.690;6.812;2022-09-12T14:04:13;4.95;;;4.32;;
52918;SDS011;38793;52.690;6.812;2022-09-12T14:07:01;9.57;;;5.38;;
52918;SDS011;38793;52.690;6.812;2022-09-12T14:09:39;3.50;;;3.20;;
52918;SDS011;38793;52.690;6.812;2022-09-12T14:12:27;6.60;;;3.13;;
52918;SDS011;38793;52.690;6.812;2022-09-12T14:14:56;5.60;;;4.10;;
52918;SDS011;38793;52.690;6.812;2022-09-12T14:17:32;6.15;;;5.55;;
52918;SDS011;38793;52.690;6.812;2022-09-12T14:20:07;5.93;;;4.88;;
52918;SDS011;38793;52.690;6.812;2022-09-12T14:22:38;4.00;;;3.70;;
52918;SDS011;38793;52.690;6.812;2022-09-12T14:25:04;5.13;;;2.80;;
52918;SDS011;38793;52.690;6.812;2022-09-12T14:27:37;3.30;;;2.75;;
52918;SDS011;38793;52.690;6.812;2022-09-12T14:33:15;2.85;;;1.73;;
52918;SDS011;38793;52.690;6.812;2022-09-12T14:35:45;4.65;;;2.20;;
52918;SDS011;38793;52.690;6.812;2022-09-12T14:38:17;3.60;;;2.15;;
52918;SDS011;38793;52.690;6.812;2022-09-12T14:40:50;7.32;;;2.88;;
52918;SDS011;38793;52.690;6.812;2022-09-12T14:43:24;2.70;;;2.28;;
52918;SDS011;38793;52.690;6.812;2022-09-12T14:45:53;3.90;;;2.83;;
52918;SDS011;38793;52.690;6.812;2022-09-12T14:48:23;3.65;;;2.70;;
52918;SDS011;38793;52.690;6.812;2022-09-12T14:50:49;3.88;;;3.13;;
52918;SDS011;38793;52.690;6.812;2022-09-12T14:55:43;4.68;;;2.58;;
52918;SDS011;38793;52.690;6.812;2022-09-12T15:03:49;4.15;;;2.10;;
52918;SDS011;38793;52.690;6.812;2022-09-12T15:06:20;2.55;;;2.17;;
52918;SDS011;38793;52.690;6.812;2022-09-12T15:08:53;3.92;;;2.15;;
52918;SDS011;38793;52.690;6.812;2022-09-12T15:11:20;3.67;;;1.88;;
52918;SDS011;38793;52.690;6.812;2022-09-12T15:13:46;4.28;;;2.22;;
52918;SDS011;38793;52.690;6.812;2022-09-12T15:16:12;3.55;;;2.10;;
52918;SDS011;38793;52.690;6.812;2022-09-12T15:18:38;3.63;;;2.13;;
52918;SDS011;38793;52.690;6.812;2022-09-12T15:21:05;2.00;;;1.77;;
52918;SDS011;38793;52.690;6.812;2022-09-12T15:23:50;2.97;;;2.10;;
52918;SDS011;38793;52.690;6.812;2022-09-12T15:26:26;4.50;;;2.25;;
52918;SDS011;38793;52.690;6.812;2022-09-12T15:28:54;2.15;;;1.95;;
52918;SDS011;38793;52.690;6.812;2022-09-12T15:31:24;5.20;;;2.50;;
52918;SDS011;38793;52.690;6.812;2022-09-12T15:33:51;3.05;;;2.10;;
52918;SDS011;38793;52.690;6.812;2022-09-12T15:36:19;4.13;;;2.63;;
52918;SDS011;38793;52.690;6.812;2022-09-12T15:38:46;10.18;;;9.30;;
52918;SDS011;38793;52.690;6.812;2022-09-12T15:41:17;6.15;;;3.20;;
52918;SDS011;38793;52.690;6.812;2022-09-12T15:43:44;3.80;;;2.75;;
52918;SDS011;38793;52.690;6.812;2022-09-12T15:46:11;5.75;;;2.97;;
52918;SDS011;38793;52.690;6.812;2022-09-12T15:48:38;7.20;;;3.38;;
52918;SDS011;38793;52.690;6.812;2022-09-12T15:51:04;60.60;;;52.65;;
52918;SDS011;38793;52.690;6.812;2022-09-12T15:53:34;6.47;;;2.53;;
52918;SDS011;38793;52.690;6.812;2022-09-12T15:58:25;4.45;;;1.50;;
52918;SDS011;38793;52.690;6.812;2022-09-12T16:00:51;2.00;;;1.67;;
52918;SDS011;38793;52.690;6.812;2022-09-12T16:03:19;4.30;;;2.40;;
52918;SDS011;38793;52.690;6.812;2022-09-12T16:05:46;3.47;;;2.00;;
52918;SDS011;38793;52.690;6.812;2022-09-12T16:10:38;2.38;;;1.60;;
52918;SDS011;38793;52.690;6.812;2022-09-12T16:13:07;2.53;;;1.60;;
52918;SDS011;38793;52.690;6.812;2022-09-12T16:17:58;2.30;;;1.67;;
52918;SDS011;38793;52.690;6.812;2022-09-12T16:20:23;2.78;;;2.20;;
52918;SDS011;38793;52.690;6.812;2022-09-12T16:22:49;3.88;;;3.03;;
52918;SDS011;38793;52.690;6.812;2022-09-12T16:27:41;21.02;;;5.80;;
52918;SDS011;38793;52.690;6.812;2022-09-12T16:30:07;4.55;;;2.90;;
52918;SDS011;38793;52.690;6.812;2022-09-12T16:32:34;4.45;;;2.80;;
52918;SDS011;38793;52.690;6.812;2022-09-12T16:37:26;4.15;;;2.55;;
52918;SDS011;38793;52.690;6.812;2022-09-12T16:42:17;4.85;;;2.50;;
52918;SDS011;38793;52.690;6.812;2022-09-12T16:47:09;5.28;;;2.60;;
52918;SDS011;38793;52.690;6.812;2022-09-12T16:49:35;2.60;;;2.40;;
52918;SDS011;38793;52.690;6.812;2022-09-12T16:54:27;4.25;;;2.70;;
52918;SDS011;38793;52.690;6.812;2022-09-12T16:56:52;4.28;;;2.28;;
52918;SDS011;38793;52.690;6.812;2022-09-12T16:59:18;11.68;;;9.20;;
52918;SDS011;38793;52.690;6.812;2022-09-12T17:01:43;4.75;;;3.25;;
52918;SDS011;38793;52.690;6.812;2022-09-12T17:04:09;3.35;;;2.85;;
52918;SDS011;38793;52.690;6.812;2022-09-12T17:06:35;10.35;;;5.72;;
52918;SDS011;38793;52.690;6.812;2022-09-12T17:09:01;2.80;;;2.47;;
52918;SDS011;38793;52.690;6.812;2022-09-12T17:11:29;4.18;;;2.90;;
52918;SDS011;38793;52.690;6.812;2022-09-12T17:13:58;3.67;;;3.35;;
52918;SDS011;38793;52.690;6.812;2022-09-12T17:16:25;5.80;;;3.13;;
52918;SDS011;38793;52.690;6.812;2022-09-12T17:18:51;5.70;;;3.85;;
52918;SDS011;38793;52.690;6.812;2022-09-12T17:21:18;3.67;;;2.90;;
52918;SDS011;38793;52.690;6.812;2022-09-12T17:23:45;4.30;;;3.13;;
52918;SDS011;38793;52.690;6.812;2022-09-12T17:28:36;4.65;;;3.38;;
52918;SDS011;38793;52.690;6.812;2022-09-12T17:31:04;3.88;;;2.92;;
52918;SDS011;38793;52.690;6.812;2022-09-12T17:33:32;6.30;;;3.30;;
52918;SDS011;38793;52.690;6.812;2022-09-12T17:36:05;10.85;;;8.35;;
52918;SDS011;38793;52.690;6.812;2022-09-12T17:38:36;12.90;;;4.47;;
52918;SDS011;38793;52.690;6.812;2022-09-12T17:41:23;66.75;;;44.28;;
52918;SDS011;38793;52.690;6.812;2022-09-12T17:43:54;5.45;;;3.88;;
52918;SDS011;38793;52.690;6.812;2022-09-12T17:46:42;4.55;;;3.70;;
52918;SDS011;38793;52.690;6.812;2022-09-12T17:49:08;5.20;;;4.20;;
52918;SDS011;38793;52.690;6.812;2022-09-12T17:51:36;13.60;;;11.95;;
52918;SDS011;38793;52.690;6.812;2022-09-12T17:56:30;3.67;;;3.17;;
52918;SDS011;38793;52.690;6.812;2022-09-12T17:58:56;3.80;;;3.05;;
52918;SDS011;38793;52.690;6.812;2022-09-12T18:01:23;5.30;;;3.95;;
52918;SDS011;38793;52.690;6.812;2022-09-12T18:04:07;6.03;;;3.70;;
52918;SDS011;38793;52.690;6.812;2022-09-12T18:06:34;6.20;;;3.97;;
52918;SDS011;38793;52.690;6.812;2022-09-12T18:11:27;6.13;;;3.42;;
52918;SDS011;38793;52.690;6.812;2022-09-12T18:16:19;4.63;;;4.22;;
52918;SDS011;38793;52.690;6.812;2022-09-12T18:21:10;5.30;;;4.80;;